Time;durP1;ratioP1;P1;durP2;ratioP2;P2;SDS_P1;SDS_P2;PMS_P1;PMS_P2;Temp;Humidity;BMP_temperature;BMP_pressure;BME280_temperature;BME280_humidity;BME280_pressure;Samples;Min_cycle;Max_cycle;Signal;HPM_P1;HPM_P2
2021/12/04 00:00:23;;;;;;;16.65;8.90;;;21.50;55.10;;;;;;5077155;28;20041;-68
2021/12/04 00:02:51;;;;;;;17.73;9.13;;;21.30;55.10;;;;;;5076703;28;20047;-68
2021/12/04 00:05:19;;;;;;;14.00;8.82;;;21.50;55.10;;;;;;5076818;28;20067;-69
2021/12/04 00:07:46;;;;;;;14.77;8.98;;;21.50;55.00;;;;;;5076741;28;20041;-69
2021/12/04 00:10:20;;;;;;;12.32;9.02;;;21.40;54.90;;;;;;5076948;28;20049;-69
2021/12/04 00:12:47;;;;;;;14.68;9.13;;;21.50;54.90;;;;;;5076842;28;20062;-69
2021/12/04 00:15:14;;;;;;;13.95;8.23;;;21.50;54.90;;;;;;5059306;28;20041;-69
2021/12/04 00:17:40;;;;;;;11.98;8.38;;;21.60;54.80;;;;;;5076596;28;20104;-69
2021/12/04 00:20:08;;;;;;;12.38;8.25;;;21.70;55.10;;;;;;5076788;28;20049;-69
2021/12/04 00:22:34;;;;;;;12.00;8.48;;;21.60;55.10;;;;;;5076518;28;20067;-69
2021/12/04 00:25:02;;;;;;;13.60;9.18;;;21.60;55.00;;;;;;5076687;28;20058;-69
2021/12/04 00:27:28;;;;;;;17.08;9.18;;;21.60;55.00;;;;;;5076410;28;20048;-69
2021/12/04 00:29:56;;;;;;;14.60;8.80;;;21.50;54.90;;;;;;5076586;28;20037;-69
2021/12/04 00:32:33;;;;;;;12.65;8.68;;;21.60;54.90;;;;;;5076169;28;20052;-69
2021/12/04 00:35:10;;;;;;;14.18;8.52;;;21.50;54.80;;;;;;5076570;28;20045;-69
2021/12/04 00:37:53;;;;;;;12.95;8.52;;;21.50;54.70;;;;;;5076250;28;20112;-69
2021/12/04 00:43:26;;;;;;;12.45;8.05;;;21.40;54.50;;;;;;5056281;28;20076;-69
2021/12/04 00:51:24;;;;;;;16.58;8.57;;;21.30;54.50;;;;;;5055848;28;20053;-68
2021/12/04 00:53:54;;;;;;;14.65;9.05;;;21.30;54.40;;;;;;5057896;28;20042;-69
2021/12/04 00:56:21;;;;;;;13.48;7.95;;;21.30;54.40;;;;;;5076477;28;20037;-69
2021/12/04 00:58:47;;;;;;;11.27;8.23;;;21.30;54.40;;;;;;5060384;28;20041;-69
2021/12/04 01:01:15;;;;;;;12.10;8.20;;;21.20;54.30;;;;;;5060551;28;20049;-69
2021/12/04 01:03:41;;;;;;;14.43;8.82;;;21.20;54.20;;;;;;5060115;28;20045;-70
2021/12/04 01:06:07;;;;;;;14.70;8.40;;;21.30;54.20;;;;;;5060251;28;20037;-69
2021/12/04 01:08:34;;;;;;;14.43;8.82;;;21.30;54.20;;;;;;5060059;28;20038;-69
2021/12/04 01:11:02;;;;;;;16.50;9.15;;;21.40;54.10;;;;;;5060023;28;20042;-69
2021/12/04 01:13:29;;;;;;;13.20;8.50;;;21.40;54.30;;;;;;5060001;28;20045;-69
2021/12/04 01:15:56;;;;;;;15.20;8.77;;;21.50;54.30;;;;;;5060087;28;20049;-69
2021/12/04 01:18:22;;;;;;;14.10;8.35;;;21.20;54.10;;;;;;5059828;28;20034;-69
2021/12/04 01:20:48;;;;;;;18.05;9.30;;;21.40;54.10;;;;;;5059848;28;20574;-69
2021/12/04 01:23:17;;;;;;;10.07;7.60;;;21.30;54.00;;;;;;5059850;28;20048;-69
2021/12/04 01:25:44;;;;;;;13.95;9.02;;;21.40;54.00;;;;;;5059702;28;20045;-69
2021/12/04 01:28:11;;;;;;;16.52;8.93;;;21.40;54.00;;;;;;5059641;28;20041;-69
2021/12/04 01:30:37;;;;;;;12.75;8.85;;;21.30;53.90;;;;;;5059832;28;20046;-69
2021/12/04 01:33:03;;;;;;;12.00;8.25;;;21.20;53.80;;;;;;5059569;28;20068;-69
2021/12/04 01:35:30;;;;;;;13.38;8.57;;;21.20;53.80;;;;;;5059665;28;20064;-69
2021/12/04 01:37:56;;;;;;;13.48;9.52;;;21.30;53.90;;;;;;5059527;28;20033;-69
2021/12/04 01:40:22;;;;;;;14.55;8.18;;;21.30;53.90;;;;;;5059258;28;20120;-69
2021/12/04 01:42:49;;;;;;;11.27;8.27;;;21.30;53.80;;;;;;5059578;28;20152;-69
2021/12/04 01:45:17;;;;;;;11.48;7.82;;;21.20;53.70;;;;;;5059443;28;20038;-69
2021/12/04 01:47:44;;;;;;;17.58;7.32;;;21.20;53.70;;;;;;5059380;28;20079;-69
2021/12/04 01:50:10;;;;;;;13.02;8.10;;;21.30;53.70;;;;;;5059267;28;20038;-69
2021/12/04 01:52:36;;;;;;;12.32;8.52;;;21.20;53.40;;;;;;5075352;28;20101;-69
2021/12/04 01:55:04;;;;;;;12.02;8.20;;;21.30;53.50;;;;;;5059253;28;20044;-69
2021/12/04 01:57:31;;;;;;;11.45;8.10;;;21.20;53.30;;;;;;5059293;28;20060;-69
2021/12/04 01:59:57;;;;;;;13.73;8.00;;;21.20;53.30;;;;;;5058937;28;20080;-69
2021/12/04 02:02:23;;;;;;;14.57;8.80;;;21.30;53.40;;;;;;5058589;28;20046;-69
2021/12/04 02:04:50;;;;;;;17.02;9.02;;;21.20;53.30;;;;;;5058417;28;20036;-69
2021/12/04 02:07:19;;;;;;;10.15;7.88;;;21.20;53.30;;;;;;5059031;28;20038;-70
2021/12/04 02:09:45;;;;;;;14.27;8.13;;;21.20;53.30;;;;;;5058917;28;20049;-69
2021/12/04 02:12:12;;;;;;;14.02;8.20;;;21.20;53.20;;;;;;5058951;28;20108;-69
2021/12/04 02:14:40;;;;;;;11.00;7.80;;;21.30;53.30;;;;;;5058831;28;20140;-69
2021/12/04 02:17:08;;;;;;;14.00;8.35;;;21.40;53.20;;;;;;5058702;28;20042;-69
2021/12/04 02:19:34;;;;;;;14.35;7.97;;;21.20;53.00;;;;;;5058518;28;20045;-68
2021/12/04 02:22:00;;;;;;;15.65;8.18;;;21.40;53.10;;;;;;5058208;28;20045;-69
2021/12/04 02:24:27;;;;;;;11.52;7.45;;;21.30;53.00;;;;;;5058630;28;20033;-69
2021/12/04 02:26:53;;;;;;;11.88;8.27;;;21.20;52.90;;;;;;5058802;28;20072;-69
2021/12/04 02:29:19;;;;;;;14.93;8.35;;;21.30;53.00;;;;;;5058373;28;20068;-69
2021/12/04 02:31:50;;;;;;;11.95;8.10;;;21.30;52.90;;;;;;5058776;28;20060;-69
2021/12/04 02:34:28;;;;;;;13.88;8.63;;;21.20;52.80;;;;;;5058829;28;20041;-69
2021/12/04 02:36:56;;;;;;;10.80;7.82;;;21.20;52.80;;;;;;5057935;28;20160;-69
2021/12/04 02:39:34;;;;;;;16.52;8.70;;;21.10;52.80;;;;;;5058309;28;20050;-68
2021/12/04 02:42:01;;;;;;;12.93;7.82;;;21.10;52.80;;;;;;5058396;28;20060;-69
2021/12/04 02:44:37;;;;;;;10.93;7.47;;;21.10;52.80;;;;;;5058319;28;20105;-69
2021/12/04 02:47:03;;;;;;;13.20;8.73;;;21.20;52.70;;;;;;5058392;28;20049;-69
2021/12/04 02:49:29;;;;;;;15.77;7.78;;;21.10;52.70;;;;;;5058040;28;20049;-70
2021/12/04 02:52:01;;;;;;;12.43;7.93;;;21.00;52.70;;;;;;5058354;28;20064;-69
2021/12/04 02:54:29;;;;;;;11.68;8.00;;;21.10;52.80;;;;;;5058316;28;20045;-69
2021/12/04 02:56:55;;;;;;;9.52;7.55;;;21.10;52.60;;;;;;5058067;28;20045;-69
2021/12/04 02:59:21;;;;;;;13.07;8.05;;;21.10;52.60;;;;;;5057950;28;20076;-68
2021/12/04 03:01:47;;;;;;;14.30;7.80;;;21.10;52.60;;;;;;5058060;28;20049;-69
2021/12/04 03:04:13;;;;;;;16.48;8.52;;;21.10;52.60;;;;;;5057716;28;20109;-69
2021/12/04 03:06:46;;;;;;;11.18;8.05;;;21.00;52.50;;;;;;5058057;28;20060;-69
2021/12/04 03:09:14;;;;;;;15.43;8.70;;;21.00;52.50;;;;;;5057836;28;20052;-69
2021/12/04 03:11:40;;;;;;;14.57;9.10;;;21.10;52.50;;;;;;5057408;28;20053;-69
2021/12/04 03:14:08;;;;;;;13.38;8.57;;;21.10;52.50;;;;;;5057730;28;20041;-69
2021/12/04 03:16:36;;;;;;;15.32;9.65;;;21.10;52.50;;;;;;5056706;28;20053;-69
2021/12/04 03:19:03;;;;;;;12.70;10.55;;;21.10;52.40;;;;;;5057349;28;20061;-68
2021/12/04 03:21:31;;;;;;;14.70;9.30;;;21.20;52.30;;;;;;5057618;28;20077;-69
2021/12/04 03:24:07;;;;;;;17.80;7.72;;;21.10;52.30;;;;;;5057483;28;20037;-70
2021/12/04 03:26:35;;;;;;;18.45;7.45;;;21.20;52.20;;;;;;5057555;28;20109;-69
2021/12/04 03:29:06;;;;;;;13.50;7.35;;;21.30;52.30;;;;;;5057461;28;20045;-69
2021/12/04 03:42:26;;;;;;;12.20;8.38;;;21.00;52.20;;;;;;5057291;28;20059;-69
2021/12/04 03:44:53;;;;;;;12.18;8.82;;;21.00;52.20;;;;;;5057231;28;20045;-69
2021/12/04 03:47:20;;;;;;;13.55;9.18;;;20.90;52.20;;;;;;5057226;28;20041;-69
2021/12/04 03:49:47;;;;;;;15.45;8.90;;;21.00;52.20;;;;;;5057037;28;20065;-69
2021/12/04 03:52:14;;;;;;;11.25;8.57;;;20.90;52.10;;;;;;5057012;28;20075;-69
2021/12/04 03:54:41;;;;;;;12.55;7.68;;;21.00;52.20;;;;;;5057106;28;20045;-69
2021/12/04 03:57:10;;;;;;;11.25;7.82;;;20.80;52.00;;;;;;5057139;28;20041;-69
2021/12/04 03:59:38;;;;;;;15.05;8.07;;;20.90;52.00;;;;;;5056769;28;20053;-69
2021/12/04 04:02:07;;;;;;;14.98;8.88;;;21.00;52.00;;;;;;5057482;28;20045;-69
2021/12/04 04:04:34;;;;;;;17.30;8.40;;;20.90;51.90;;;;;;5057319;28;20026;-69
2021/12/04 04:07:00;;;;;;;17.73;9.30;;;21.00;51.90;;;;;;5056831;28;20037;-69
2021/12/04 04:09:27;;;;;;;18.25;10.60;;;20.90;52.00;;;;;;5057032;28;20040;-69
2021/12/04 04:11:54;;;;;;;20.38;10.75;;;21.00;52.00;;;;;;5056835;28;20042;-69
2021/12/04 04:14:20;;;;;;;16.88;10.52;;;21.00;52.00;;;;;;5056496;28;20045;-69
2021/12/04 04:16:46;;;;;;;29.38;12.15;;;20.90;51.90;;;;;;5056715;28;20071;-69
2021/12/04 04:19:12;;;;;;;20.05;11.02;;;20.90;51.80;;;;;;5056465;28;20065;-68
2021/12/04 04:21:41;;;;;;;21.23;10.52;;;21.00;51.80;;;;;;5056452;28;20108;-69
2021/12/04 04:24:10;;;;;;;17.13;11.88;;;20.90;51.80;;;;;;5056748;28;20045;-69
2021/12/04 04:26:37;;;;;;;20.88;10.80;;;21.00;51.70;;;;;;5056535;28;20132;-69
2021/12/04 04:29:05;;;;;;;18.15;10.70;;;21.00;51.60;;;;;;5056371;28;20053;-69
2021/12/04 04:31:32;;;;;;;15.68;10.48;;;21.20;51.60;;;;;;5053105;28;20077;-69
2021/12/04 04:34:07;;;;;;;21.85;10.15;;;21.10;51.60;;;;;;5056604;28;20076;-69
2021/12/04 05:11:21;;;;;;;13.10;6.78;;;21.80;57.70;;;;;;5054629;28;20071;-72
2021/12/04 05:13:48;;;;;;;10.00;7.13;;;22.20;57.90;;;;;;5055522;28;20049;-73
2021/12/04 05:16:15;;;;;;;10.95;6.97;;;22.40;55.10;;;;;;5055441;28;20059;-72
2021/12/04 05:18:57;;;;;;;14.27;6.90;;;22.40;49.80;;;;;;5055694;28;20037;-74
2021/12/04 05:21:24;;;;;;;15.30;9.05;;;22.60;47.90;;;;;;5055474;28;20072;-69
2021/12/04 05:23:54;;;;;;;10.50;7.93;;;22.60;45.80;;;;;;5055239;28;20037;-68
2021/12/04 05:26:24;;;;;;;13.48;9.20;;;22.20;45.60;;;;;;5055616;28;20049;-69
2021/12/04 05:28:52;;;;;;;14.68;8.00;;;22.20;46.10;;;;;;5054365;28;20545;-69
2021/12/04 05:31:20;;;;;;;17.77;11.05;;;21.80;47.00;;;;;;5055094;28;20041;-68
2021/12/04 05:33:47;;;;;;;16.65;10.38;;;21.80;48.00;;;;;;5055317;28;20072;-68
2021/12/04 05:36:14;;;;;;;13.10;9.27;;;21.70;48.60;;;;;;5055337;28;20045;-68
2021/12/04 05:38:40;;;;;;;17.38;10.93;;;21.60;48.90;;;;;;5055400;28;20120;-68
2021/12/04 05:41:06;;;;;;;15.52;10.27;;;21.60;50.00;;;;;;5058469;28;20049;-68
2021/12/04 05:43:34;;;;;;;20.45;10.07;;;21.70;50.60;;;;;;5058832;28;20042;-68
2021/12/04 05:49:01;;;;;;;21.17;10.98;;;21.60;50.80;;;;;;5058914;28;20097;-68
2021/12/04 05:54:02;;;;;;;20.48;11.50;;;21.50;54.10;;;;;;5058647;28;20052;-68
2021/12/04 05:56:30;;;;;;;21.48;11.27;;;22.00;55.80;;;;;;5058596;28;20049;-68
2021/12/04 05:58:57;;;;;;;21.70;11.25;;;22.30;55.90;;;;;;5058241;28;20113;-68
2021/12/04 06:01:25;;;;;;;29.58;25.05;;;22.60;56.60;;;;;;5044545;28;20045;-68
2021/12/04 06:03:51;;;;;;;16.67;9.13;;;22.70;55.70;;;;;;5046539;28;20038;-67
2021/12/04 06:06:18;;;;;;;11.57;5.88;;;22.60;44.80;;;;;;5046644;28;20056;-68
2021/12/04 06:08:44;;;;;;;7.45;5.45;;;22.60;45.20;;;;;;5050243;28;20049;-67
2021/12/04 06:11:10;;;;;;;12.15;4.10;;;22.70;42.90;;;;;;5048546;28;20052;-68
2021/12/04 06:13:37;;;;;;;15.68;4.55;;;22.80;42.90;;;;;;5046902;28;20073;-68
2021/12/04 06:16:04;;;;;;;16.52;5.32;;;22.80;43.90;;;;;;5049500;28;20057;-67
2021/12/04 06:18:32;;;;;;;20.95;5.85;;;23.00;52.00;;;;;;5051739;28;20037;-68
2021/12/04 06:23:44;;;;;;;19.13;7.38;;;23.10;47.20;;;;;;5044794;28;20057;-68
2021/12/04 06:26:10;;;;;;;19.25;6.07;;;23.20;48.10;;;;;;5046991;28;20049;-67
2021/12/04 06:28:36;;;;;;;33.38;7.85;;;23.30;47.30;;;;;;5048243;28;20052;-68
2021/12/04 06:31:07;;;;;;;10.75;5.47;;;23.30;51.20;;;;;;5049615;28;20049;-67
2021/12/04 06:33:34;;;;;;;29.25;8.90;;;23.40;47.60;;;;;;5057259;28;20158;-68
2021/12/04 06:36:00;;;;;;;23.13;6.97;;;23.50;52.20;;;;;;5057794;28;20053;-68
2021/12/04 06:38:27;;;;;;;7.13;4.57;;;23.50;54.80;;;;;;5057859;28;20037;-68
2021/12/04 06:40:54;;;;;;;38.40;9.00;;;23.70;49.80;;;;;;5073470;28;20045;-67
2021/12/04 06:43:20;;;;;;;11.20;5.38;;;23.80;52.50;;;;;;5077508;28;20056;-67
2021/12/04 06:45:57;;;;;;;10.02;4.80;;;23.70;43.10;;;;;;5077683;28;20053;-68
2021/12/04 06:48:26;;;;;;;15.82;7.90;;;23.70;40.60;;;;;;5064984;28;20045;-67
2021/12/04 06:50:57;;;;;;;8.73;6.10;;;23.70;40.20;;;;;;5057093;28;20076;-68
2021/12/04 06:53:31;;;;;;;9.85;5.72;;;23.50;40.00;;;;;;5057527;28;20041;-68
2021/12/04 06:56:00;;;;;;;17.23;10.63;;;23.50;39.30;;;;;;5057205;28;20037;-68
2021/12/04 06:58:27;;;;;;;17.27;11.77;;;23.50;46.30;;;;;;5057642;28;20045;-69
2021/12/04 07:00:54;;;;;;;17.73;11.35;;;23.50;52.60;;;;;;5057287;28;20072;-69
2021/12/04 07:03:21;;;;;;;19.42;12.50;;;23.50;53.10;;;;;;5057240;28;20041;-69
2021/12/04 07:05:48;;;;;;;19.33;11.13;;;23.30;53.90;;;;;;5056681;28;20033;-68
2021/12/04 07:08:15;;;;;;;23.05;12.15;;;23.20;55.00;;;;;;5056895;28;20041;-68
2021/12/04 07:10:41;;;;;;;26.15;11.52;;;23.00;55.30;;;;;;5056487;28;20042;-69
2021/12/04 07:13:07;;;;;;;20.73;11.55;;;23.00;56.00;;;;;;5057503;28;20053;-69
2021/12/04 07:15:35;;;;;;;20.17;10.27;;;22.90;56.20;;;;;;5056954;28;20037;-69
2021/12/04 07:18:02;;;;;;;18.92;10.80;;;22.90;56.70;;;;;;5056528;28;20053;-69
2021/12/04 07:20:29;;;;;;;14.63;11.20;;;22.70;57.10;;;;;;5073040;28;20121;-68
2021/12/04 07:22:56;;;;;;;18.08;10.57;;;22.70;57.50;;;;;;5056744;28;20053;-68
2021/12/04 07:25:23;;;;;;;15.70;10.07;;;22.60;57.80;;;;;;5056103;28;20041;-69
2021/12/04 07:27:50;;;;;;;20.20;11.77;;;22.60;58.10;;;;;;5057108;28;20038;-68
2021/12/04 07:30:18;;;;;;;16.52;10.15;;;22.50;58.80;;;;;;5056811;28;20087;-68
2021/12/04 07:32:45;;;;;;;19.92;10.95;;;22.60;59.80;;;;;;5056697;28;20548;-68
2021/12/04 07:35:12;;;;;;;20.73;12.65;;;22.50;60.50;;;;;;5056633;28;20064;-68
2021/12/04 07:37:38;;;;;;;17.95;11.23;;;22.40;60.80;;;;;;5072554;28;20096;-68
2021/12/04 07:40:05;;;;;;;16.65;10.40;;;22.40;61.10;;;;;;5035812;28;20046;-68
2021/12/04 07:42:31;;;;;;;23.90;10.50;;;22.30;61.80;;;;;;5036497;28;20089;-67
2021/12/04 07:44:59;;;;;;;21.85;11.25;;;22.30;62.30;;;;;;5036707;28;20042;-68
2021/12/04 07:47:26;;;;;;;22.38;13.40;;;22.20;62.80;;;;;;5036549;28;20042;-68
2021/12/04 07:49:53;;;;;;;22.48;11.65;;;22.20;63.30;;;;;;5019624;28;20045;-68
2021/12/04 07:52:19;;;;;;;17.05;11.25;;;22.30;62.30;;;;;;5041765;28;20053;-68
2021/12/04 07:54:50;;;;;;;15.95;10.73;;;22.20;61.60;;;;;;5042640;28;20052;-68
2021/12/04 07:57:17;;;;;;;20.38;11.50;;;22.10;61.60;;;;;;5036389;28;20052;-67
2021/12/04 07:59:44;;;;;;;17.25;10.98;;;22.10;61.50;;;;;;5036328;28;20052;-68
2021/12/04 08:02:12;;;;;;;18.05;11.18;;;22.10;61.50;;;;;;5035675;28;20050;-68
2021/12/04 08:04:39;;;;;;;17.55;10.80;;;21.90;61.20;;;;;;5036308;28;20050;-68
2021/12/04 08:07:05;;;;;;;21.38;11.30;;;22.00;61.50;;;;;;5036430;28;20093;-68
2021/12/04 08:09:32;;;;;;;21.63;11.52;;;21.90;61.50;;;;;;5036288;28;20057;-68
2021/12/04 08:11:58;;;;;;;15.43;10.85;;;22.00;61.10;;;;;;5036099;28;20057;-68
2021/12/04 08:14:24;;;;;;;24.05;11.25;;;22.10;61.10;;;;;;5036418;28;20069;-67
2021/12/04 08:16:50;;;;;;;19.85;10.88;;;22.00;60.90;;;;;;5036476;28;20064;-68
2021/12/04 08:19:16;;;;;;;21.90;11.48;;;22.00;61.00;;;;;;5033747;28;20045;-67
2021/12/04 08:21:42;;;;;;;18.17;10.52;;;22.00;61.20;;;;;;5035655;28;20105;-67
2021/12/04 08:24:09;;;;;;;19.75;10.77;;;22.00;61.30;;;;;;5036225;28;20038;-68
2021/12/04 08:26:38;;;;;;;18.23;11.60;;;22.00;61.30;;;;;;5035233;28;20042;-68
2021/12/04 08:29:05;;;;;;;20.65;10.45;;;22.00;60.90;;;;;;5035703;28;20049;-67
2021/12/04 08:31:32;;;;;;;18.13;11.35;;;22.00;60.80;;;;;;5035555;28;20082;-67
2021/12/04 08:34:00;;;;;;;19.10;11.10;;;22.10;60.90;;;;;;5035445;28;20065;-68
2021/12/04 08:36:27;;;;;;;20.70;12.27;;;22.00;60.90;;;;;;5018943;28;20056;-68
2021/12/04 08:38:53;;;;;;;18.02;11.63;;;22.00;60.50;;;;;;5036032;28;20046;-67
2021/12/04 08:41:20;;;;;;;24.80;11.90;;;21.90;60.50;;;;;;5055134;28;20049;-68
2021/12/04 08:43:47;;;;;;;19.98;12.00;;;21.90;60.60;;;;;;5055635;28;20063;-68
2021/12/04 08:46:16;;;;;;;17.08;10.68;;;21.90;60.40;;;;;;5055642;28;20041;-69
2021/12/04 08:48:42;;;;;;;22.27;10.77;;;21.80;60.60;;;;;;5054882;28;20056;-67
2021/12/04 08:51:08;;;;;;;15.45;9.60;;;21.80;61.20;;;;;;5054650;28;20064;-66
2021/12/04 08:53:34;;;;;;;16.88;10.48;;;21.80;61.60;;;;;;5054099;28;20042;-67
2021/12/04 08:56:00;;;;;;;20.38;11.18;;;21.90;64.20;;;;;;5053900;28;20029;-67
2021/12/04 08:58:27;;;;;;;17.38;10.80;;;21.90;64.10;;;;;;5053897;28;20038;-67
2021/12/04 09:00:57;;;;;;;17.85;10.23;;;21.80;62.90;;;;;;5054298;28;20037;-68
2021/12/04 09:03:29;;;;;;;17.63;10.13;;;21.90;63.30;;;;;;5053984;28;20068;-67
2021/12/04 09:05:56;;;;;;;18.70;9.55;;;21.90;63.50;;;;;;5053974;28;20045;-67
2021/12/04 09:08:25;;;;;;;16.20;9.32;;;21.80;63.40;;;;;;5054595;28;20044;-68
2021/12/04 09:10:55;;;;;;;17.27;9.63;;;22.00;63.10;;;;;;5054852;28;20041;-67
2021/12/04 09:13:22;;;;;;;16.00;9.20;;;22.00;62.50;;;;;;5054789;28;20064;-67
2021/12/04 09:15:51;;;;;;;16.95;8.85;;;22.00;63.40;;;;;;5057756;28;20096;-67
2021/12/04 09:18:17;;;;;;;16.90;8.68;;;21.90;64.20;;;;;;5059474;28;20052;-67
2021/12/04 09:20:43;;;;;;;13.93;8.75;;;22.10;64.20;;;;;;5059455;28;20041;-67
2021/12/04 09:23:16;;;;;;;13.48;8.90;;;21.90;63.90;;;;;;5058906;28;20136;-68
2021/12/04 09:25:47;;;;;;;14.98;8.88;;;22.00;63.80;;;;;;5058535;28;20037;-69
2021/12/04 09:28:27;;;;;;;12.52;9.02;;;22.00;63.40;;;;;;5058560;28;20097;-68
2021/12/04 10:05:18;;;;;;;4.63;3.15;;;22.70;46.70;;;;;;5058327;28;20041;-72
2021/12/04 10:18:10;;;;;;;1.85;1.70;;;23.10;43.90;;;;;;5058084;28;20053;-72
2021/12/04 10:34:15;;;;;;;20.27;12.45;;;23.30;45.50;;;;;;5090440;28;20049;-68
2021/12/04 10:36:41;;;;;;;19.77;11.73;;;23.40;46.60;;;;;;5057962;28;20041;-68
2021/12/04 10:39:10;;;;;;;20.65;12.52;;;23.40;47.10;;;;;;5057493;28;20047;-68
2021/12/04 10:41:40;;;;;;;20.88;12.98;;;23.30;47.20;;;;;;5057665;28;20049;-68
2021/12/04 10:44:23;;;;;;;20.63;13.60;;;23.40;48.00;;;;;;5057754;28;20040;-68
2021/12/04 10:47:01;;;;;;;22.88;12.30;;;23.10;48.50;;;;;;5056900;28;20048;-68
2021/12/04 10:55:38;;;;;;;20.20;11.77;;;23.10;52.20;;;;;;5057106;28;20053;-68
2021/12/04 11:21:35;;;;;;;10.88;6.00;;;23.50;36.40;;;;;;5056828;28;20101;-68
2021/12/04 11:26:29;;;;;;;9.38;5.88;;;23.60;40.30;;;;;;5056916;28;20042;-67
2021/12/04 11:44:53;;;;;;;19.38;12.05;;;23.80;49.40;;;;;;5056152;28;20045;-67
2021/12/04 11:47:20;;;;;;;17.27;10.73;;;23.70;49.40;;;;;;5056500;28;20052;-68
2021/12/04 11:49:48;;;;;;;19.35;12.13;;;23.70;49.70;;;;;;5056233;28;20057;-67
2021/12/04 11:52:17;;;;;;;27.42;12.93;;;23.70;49.70;;;;;;5056405;28;20045;-68
2021/12/04 11:54:57;;;;;;;19.60;11.75;;;23.70;49.80;;;;;;5056246;28;20061;-68
2021/12/04 11:57:42;;;;;;;22.67;12.15;;;23.70;50.20;;;;;;5056636;28;20049;-68
2021/12/04 12:00:25;;;;;;;24.45;13.70;;;23.70;50.50;;;;;;5052378;28;20049;-68
2021/12/04 12:02:52;;;;;;;;;;;23.70;50.80;;;;;;5049811;28;20075;-68
2021/12/04 12:05:22;;;;;;;20.02;12.27;;;23.70;50.90;;;;;;5055926;28;19936;-68
2021/12/04 12:07:56;;;;;;;20.70;11.88;;;23.60;51.00;;;;;;5056080;28;20041;-67
2021/12/04 12:10:27;;;;;;;20.20;12.02;;;23.50;51.20;;;;;;5056099;28;20046;-68
2021/12/04 12:13:04;;;;;;;21.52;11.95;;;23.50;51.70;;;;;;5056031;28;20049;-68
2021/12/04 12:15:34;;;;;;;19.38;12.18;;;23.30;51.50;;;;;;5049765;28;20050;-68
2021/12/04 12:18:16;;;;;;;20.33;12.82;;;23.30;51.80;;;;;;5047248;28;20060;-68
2021/12/04 12:20:56;;;;;;;19.05;13.50;;;23.20;51.90;;;;;;5055127;28;20064;-67
2021/12/04 12:23:33;;;;;;;24.02;11.70;;;23.20;52.00;;;;;;5049904;28;20079;-68
2021/12/04 12:32:03;;;;;;;19.65;12.60;;;23.30;52.20;;;;;;5052505;28;20037;-68
2021/12/04 12:37:47;;;;;;;19.45;12.43;;;23.00;52.30;;;;;;5052348;28;20056;-68
2021/12/04 12:40:14;;;;;;;20.20;11.63;;;23.00;52.70;;;;;;4990510;28;20062;-68
2021/12/04 12:42:43;;;;;;;21.42;13.38;;;23.00;52.70;;;;;;5057950;28;20053;-68
2021/12/04 12:45:29;;;;;;;20.13;11.27;;;22.90;53.10;;;;;;5066359;28;20098;-69
2021/12/04 12:48:03;;;;;;;19.85;12.10;;;22.80;53.10;;;;;;5063997;28;20060;-69
2021/12/04 12:50:37;;;;;;;26.10;13.15;;;22.80;54.30;;;;;;5068064;28;20044;-68
2021/12/04 12:53:15;;;;;;;19.92;12.75;;;22.70;55.00;;;;;;5061805;28;20060;-68
2021/12/04 12:55:44;;;;;;;18.08;11.05;;;22.60;55.70;;;;;;5078720;28;20045;-68
2021/12/04 12:58:13;;;;;;;21.13;12.75;;;22.50;56.00;;;;;;5080603;28;20021;-68
2021/12/04 13:12:17;;;;;;;22.77;12.95;;;22.70;56.70;;;;;;5078155;28;20129;-67
2021/12/04 13:14:45;;;;;;;25.38;12.80;;;22.60;56.50;;;;;;5068332;28;20204;-66
2021/12/04 13:17:26;;;;;;;22.85;13.32;;;22.60;56.40;;;;;;5079467;28;20052;-66
2021/12/04 13:19:57;;;;;;;20.40;12.27;;;22.60;56.30;;;;;;5079185;28;20063;-66
2021/12/04 13:22:25;;;;;;;21.80;13.27;;;22.60;56.20;;;;;;5078288;28;20066;-66
2021/12/04 13:24:54;;;;;;;22.27;12.38;;;22.70;56.10;;;;;;5078746;28;20037;-66
2021/12/04 13:29:57;;;;;;;23.38;10.85;;;22.60;56.10;;;;;;5078087;28;20066;-67
2021/12/04 13:32:35;;;;;;;21.67;11.13;;;22.60;55.90;;;;;;5078909;28;20045;-66
2021/12/04 13:35:11;;;;;;;16.85;10.43;;;22.60;55.90;;;;;;5078948;28;20429;-66
2021/12/04 13:37:40;;;;;;;19.70;11.52;;;22.60;55.90;;;;;;5079223;28;20044;-66
2021/12/04 13:40:10;;;;;;;18.80;11.45;;;22.80;56.00;;;;;;5078918;28;20060;-66
2021/12/04 13:42:38;;;;;;;22.15;11.65;;;22.70;55.80;;;;;;5078376;28;20067;-66
2021/12/04 13:45:12;;;;;;;21.75;10.48;;;22.70;55.80;;;;;;5078360;28;20064;-66
2021/12/04 13:47:40;;;;;;;17.02;9.55;;;22.60;55.80;;;;;;5077802;28;20738;-66
2021/12/04 13:52:56;;;;;;;21.25;11.55;;;22.70;55.70;;;;;;5078293;28;20048;-66
2021/12/04 13:55:25;;;;;;;15.60;10.40;;;22.70;55.70;;;;;;5078271;28;20041;-66
2021/12/04 13:57:51;;;;;;;19.92;11.55;;;22.80;55.80;;;;;;5078325;28;20041;-66
2021/12/04 14:00:18;;;;;;;23.00;10.32;;;22.70;55.80;;;;;;5076755;28;20049;-66
2021/12/04 14:02:44;;;;;;;20.77;10.85;;;22.70;55.90;;;;;;5077566;28;20052;-66
2021/12/04 14:05:18;;;;;;;19.73;10.52;;;22.70;55.80;;;;;;5078262;28;20444;-66
2021/12/04 14:07:53;;;;;;;18.15;10.55;;;22.70;55.70;;;;;;5078103;28;20065;-66
2021/12/04 14:10:23;;;;;;;21.33;11.90;;;22.60;55.60;;;;;;5078322;28;20131;-66
2021/12/04 14:12:49;;;;;;;25.95;10.88;;;22.50;55.60;;;;;;5078290;28;20056;-66
2021/12/04 14:15:18;;;;;;;19.10;10.93;;;22.40;55.70;;;;;;5078229;28;20068;-65
2021/12/04 14:17:47;;;;;;;22.02;10.45;;;22.30;55.80;;;;;;5077762;28;20124;-66
2021/12/04 14:20:22;;;;;;;21.08;12.55;;;22.30;55.90;;;;;;5075650;28;20056;-66
2021/12/04 14:22:50;;;;;;;21.38;12.43;;;22.30;55.90;;;;;;5076582;28;20049;-66
2021/12/04 14:25:18;;;;;;;17.63;9.85;;;22.40;56.00;;;;;;5066053;28;20109;-74
2021/12/04 14:27:45;;;;;;;17.73;9.70;;;22.40;56.30;;;;;;5066840;28;20041;-71
2021/12/04 14:30:18;;;;;;;21.20;12.23;;;22.60;56.20;;;;;;5067137;28;20052;-71
2021/12/04 14:32:52;;;;;;;;;;;23.00;53.50;;;;;;5068424;28;20055;-71
2021/12/04 14:35:23;;;;;;;26.20;12.68;;;23.30;52.10;;;;;;5077744;28;19959;-71
2021/12/04 14:37:54;;;;;;;26.00;13.00;;;23.20;50.60;;;;;;5078975;28;20057;-71
2021/12/04 14:40:33;;;;;;;20.00;12.45;;;23.30;49.90;;;;;;5065314;28;20049;-71
2021/12/04 14:42:59;;;;;;;18.33;10.55;;;23.30;49.40;;;;;;5050680;28;20116;-72
2021/12/04 14:45:30;;;;;;;25.20;12.25;;;23.40;49.10;;;;;;5069163;28;20068;-71
2021/12/04 14:48:07;;;;;;;22.15;12.23;;;23.40;48.90;;;;;;5072144;28;20131;-71
2021/12/04 14:50:36;;;;;;;25.25;13.95;;;23.60;48.70;;;;;;5067550;28;20045;-67
2021/12/04 14:53:04;;;;;;;24.63;13.13;;;23.50;48.20;;;;;;5066716;28;20075;-67
2021/12/04 14:55:35;;;;;;;21.95;12.95;;;23.50;45.90;;;;;;5066218;28;20050;-67
2021/12/04 14:58:06;;;;;;;2.33;2.10;;;23.40;42.90;;;;;;5060445;28;20064;-67
2021/12/04 15:00:36;;;;;;;1.45;1.35;;;23.50;42.60;;;;;;5084819;28;20052;-66
2021/12/04 15:03:10;;;;;;;4.97;4.30;;;23.80;43.30;;;;;;5051232;28;20045;-66
2021/12/04 15:05:40;;;;;;;22.00;10.73;;;24.10;45.80;;;;;;5056019;28;20041;-66
2021/12/04 15:08:20;;;;;;;17.60;10.73;;;24.20;42.00;;;;;;5057409;28;20045;-66
2021/12/04 15:10:59;;;;;;;38.92;17.63;;;24.10;36.00;;;;;;5055538;28;20033;-68
2021/12/04 15:13:29;;;;;;;36.08;19.10;;;24.00;41.10;;;;;;5055200;28;20037;-67
2021/12/04 15:16:04;;;;;;;31.98;17.73;;;23.80;41.50;;;;;;5055327;28;20052;-68
2021/12/04 15:18:36;;;;;;;36.47;17.98;;;23.50;43.00;;;;;;5055260;28;20057;-69
2021/12/04 15:21:11;;;;;;;24.98;16.20;;;23.30;44.10;;;;;;5055091;28;20052;-68
2021/12/04 15:23:39;;;;;;;31.45;16.58;;;23.10;45.40;;;;;;5054721;28;20051;-69
2021/12/04 15:26:25;;;;;;;37.75;17.90;;;23.10;46.30;;;;;;5055075;28;20041;-69
2021/12/04 15:28:53;;;;;;;35.25;17.58;;;22.90;47.20;;;;;;5054930;28;20068;-69
2021/12/04 15:31:23;;;;;;;32.17;17.15;;;22.80;47.90;;;;;;5054870;28;20041;-68
2021/12/04 15:33:54;;;;;;;30.50;16.88;;;22.90;48.70;;;;;;5054700;28;20034;-70
2021/12/04 15:36:22;;;;;;;30.38;17.02;;;22.90;49.10;;;;;;5054670;28;20079;-68
2021/12/04 15:38:53;;;;;;;34.50;19.63;;;22.80;49.40;;;;;;5054669;28;20065;-70
2021/12/04 15:55:34;;;;;;;36.22;20.08;;;22.20;52.30;;;;;;5054300;28;20041;-67
2021/12/04 15:58:05;;;;;;;39.05;21.63;;;22.20;52.60;;;;;;5054633;28;20064;-69
2021/12/04 16:00:33;;;;;;;49.40;23.88;;;22.10;53.30;;;;;;5054470;28;20037;-68
2021/12/04 16:03:01;;;;;;;49.55;27.80;;;22.10;53.60;;;;;;5054036;28;20038;-68
2021/12/04 16:05:33;;;;;;;52.08;27.27;;;22.00;53.60;;;;;;5037180;28;20037;-68
2021/12/04 16:08:07;;;;;;;41.80;22.90;;;22.10;53.80;;;;;;5054508;28;20050;-67
2021/12/04 16:10:38;;;;;;;41.05;21.30;;;22.10;54.00;;;;;;5054259;28;20056;-69